sensor_id;sensor_type;location;lat;lon;timestamp;P1;durP1;ratioP1;P2;durP2;ratioP2
67867;SDS011;54672;46.096;14.470;2023-04-03T00:00:59;1.58;;;1.00;;
67867;SDS011;54672;46.096;14.470;2023-04-03T00:03:25;2.03;;;1.17;;
67867;SDS011;54672;46.096;14.470;2023-04-03T00:05:51;1.85;;;1.20;;
67867;SDS011;54672;46.096;14.470;2023-04-03T00:08:16;2.53;;;1.27;;
67867;SDS011;54672;46.096;14.470;2023-04-03T00:10:42;3.60;;;1.45;;
67867;SDS011;54672;46.096;14.470;2023-04-03T00:13:08;1.90;;;1.23;;
67867;SDS011;54672;46.096;14.470;2023-04-03T00:15:34;2.50;;;1.25;;
67867;SDS011;54672;46.096;14.470;2023-04-03T00:18:00;2.85;;;1.35;;
67867;SDS011;54672;46.096;14.470;2023-04-03T00:20:26;1.95;;;1.10;;
67867;SDS011;54672;46.096;14.470;2023-04-03T00:22:52;2.38;;;1.70;;
67867;SDS011;54672;46.096;14.470;2023-04-03T00:25:18;2.42;;;1.38;;
67867;SDS011;54672;46.096;14.470;2023-04-03T00:27:44;4.68;;;2.20;;
67867;SDS011;54672;46.096;14.470;2023-04-03T00:30:10;2.00;;;1.38;;
67867;SDS011;54672;46.096;14.470;2023-04-03T00:32:38;2.60;;;1.48;;
67867;SDS011;54672;46.096;14.470;2023-04-03T00:35:04;3.10;;;1.80;;
67867;SDS011;54672;46.096;14.470;2023-04-03T00:37:30;2.20;;;1.15;;
67867;SDS011;54672;46.096;14.470;2023-04-03T00:39:56;3.35;;;1.70;;
67867;SDS011;54672;46.096;14.470;2023-04-03T00:42:21;2.70;;;1.58;;
67867;SDS011;54672;46.096;14.470;2023-04-03T00:47:13;2.33;;;1.40;;
67867;SDS011;54672;46.096;14.470;2023-04-03T00:49:42;4.18;;;1.85;;
67867;SDS011;54672;46.096;14.470;2023-04-03T00:52:10;2.72;;;1.83;;
67867;SDS011;54672;46.096;14.470;2023-04-03T00:54:41;3.28;;;1.88;;
67867;SDS011;54672;46.096;14.470;2023-04-03T00:57:09;3.28;;;1.73;;
67867;SDS011;54672;46.096;14.470;2023-04-03T00:59:36;3.05;;;1.80;;
67867;SDS011;54672;46.096;14.470;2023-04-03T01:02:09;3.70;;;2.00;;
67867;SDS011;54672;46.096;14.470;2023-04-03T01:04:35;2.88;;;1.70;;
67867;SDS011;54672;46.096;14.470;2023-04-03T01:09:42;2.95;;;1.70;;
67867;SDS011;54672;46.096;14.470;2023-04-03T01:14:43;2.90;;;2.10;;
67867;SDS011;54672;46.096;14.470;2023-04-03T01:25:15;2.75;;;1.63;;
67867;SDS011;54672;46.096;14.470;2023-04-03T01:27:41;3.40;;;1.90;;
67867;SDS011;54672;46.096;14.470;2023-04-03T01:30:07;3.45;;;2.20;;
67867;SDS011;54672;46.096;14.470;2023-04-03T01:32:32;5.28;;;2.20;;
67867;SDS011;54672;46.096;14.470;2023-04-03T01:34:58;2.60;;;1.90;;
67867;SDS011;54672;46.096;14.470;2023-04-03T01:37:23;4.45;;;1.92;;
67867;SDS011;54672;46.096;14.470;2023-04-03T01:39:49;3.45;;;1.67;;
67867;SDS011;54672;46.096;14.470;2023-04-03T01:42:14;3.70;;;2.00;;
67867;SDS011;54672;46.096;14.470;2023-04-03T01:44:41;3.42;;;2.30;;
67867;SDS011;54672;46.096;14.470;2023-04-03T01:47:06;2.85;;;1.67;;
67867;SDS011;54672;46.096;14.470;2023-04-03T01:49:32;3.80;;;1.83;;
67867;SDS011;54672;46.096;14.470;2023-04-03T01:51:57;4.43;;;2.38;;
67867;SDS011;54672;46.096;14.470;2023-04-03T01:54:23;2.65;;;1.73;;
67867;SDS011;54672;46.096;14.470;2023-04-03T01:56:48;3.42;;;2.13;;
67867;SDS011;54672;46.096;14.470;2023-04-03T01:59:14;3.80;;;1.90;;
67867;SDS011;54672;46.096;14.470;2023-04-03T02:01:42;4.35;;;2.20;;
67867;SDS011;54672;46.096;14.470;2023-04-03T02:04:08;3.92;;;1.98;;
67867;SDS011;54672;46.096;14.470;2023-04-03T02:06:34;3.05;;;1.85;;
67867;SDS011;54672;46.096;14.470;2023-04-03T02:08:59;3.17;;;2.00;;
67867;SDS011;54672;46.096;14.470;2023-04-03T02:11:25;4.18;;;1.85;;
67867;SDS011;54672;46.096;14.470;2023-04-03T02:13:50;2.30;;;1.63;;
67867;SDS011;54672;46.096;14.470;2023-04-03T02:16:16;3.35;;;1.90;;
67867;SDS011;54672;46.096;14.470;2023-04-03T02:18:41;4.25;;;1.88;;
67867;SDS011;54672;46.096;14.470;2023-04-03T02:21:07;2.15;;;1.25;;
67867;SDS011;54672;46.096;14.470;2023-04-03T02:23:32;3.90;;;2.08;;
67867;SDS011;54672;46.096;14.470;2023-04-03T02:26:16;2.80;;;1.92;;
67867;SDS011;54672;46.096;14.470;2023-04-03T02:28:42;4.10;;;2.28;;
67867;SDS011;54672;46.096;14.470;2023-04-03T02:31:08;3.35;;;1.92;;
67867;SDS011;54672;46.096;14.470;2023-04-03T02:33:34;3.13;;;1.80;;
67867;SDS011;54672;46.096;14.470;2023-04-03T02:36:04;3.13;;;1.92;;
67867;SDS011;54672;46.096;14.470;2023-04-03T02:38:31;3.00;;;2.03;;
67867;SDS011;54672;46.096;14.470;2023-04-03T02:41:03;3.55;;;1.88;;
67867;SDS011;54672;46.096;14.470;2023-04-03T02:43:31;2.63;;;1.55;;
67867;SDS011;54672;46.096;14.470;2023-04-03T02:45:57;2.50;;;1.40;;
67867;SDS011;54672;46.096;14.470;2023-04-03T02:48:22;4.35;;;1.73;;
67867;SDS011;54672;46.096;14.470;2023-04-03T02:50:48;3.10;;;1.90;;
67867;SDS011;54672;46.096;14.470;2023-04-03T02:53:13;3.05;;;2.00;;
67867;SDS011;54672;46.096;14.470;2023-04-03T02:55:40;3.35;;;2.05;;
67867;SDS011;54672;46.096;14.470;2023-04-03T02:58:06;2.53;;;1.65;;
67867;SDS011;54672;46.096;14.470;2023-04-03T03:00:31;2.90;;;2.10;;
67867;SDS011;54672;46.096;14.470;2023-04-03T03:02:57;3.42;;;2.03;;
67867;SDS011;54672;46.096;14.470;2023-04-03T03:05:22;4.13;;;2.20;;
67867;SDS011;54672;46.096;14.470;2023-04-03T03:07:48;3.42;;;2.10;;
67867;SDS011;54672;46.096;14.470;2023-04-03T03:10:13;4.43;;;2.40;;
67867;SDS011;54672;46.096;14.470;2023-04-03T03:12:39;4.05;;;2.13;;
67867;SDS011;54672;46.096;14.470;2023-04-03T03:15:05;3.28;;;1.50;;
67867;SDS011;54672;46.096;14.470;2023-04-03T03:17:31;3.88;;;2.20;;
67867;SDS011;54672;46.096;14.470;2023-04-03T03:19:57;4.03;;;2.13;;
67867;SDS011;54672;46.096;14.470;2023-04-03T03:22:22;4.28;;;2.55;;
67867;SDS011;54672;46.096;14.470;2023-04-03T03:24:48;3.83;;;2.22;;
67867;SDS011;54672;46.096;14.470;2023-04-03T03:27:13;3.58;;;2.05;;
67867;SDS011;54672;46.096;14.470;2023-04-03T03:29:41;4.47;;;2.60;;
67867;SDS011;54672;46.096;14.470;2023-04-03T03:32:06;5.78;;;2.40;;
67867;SDS011;54672;46.096;14.470;2023-04-03T03:34:32;3.75;;;2.30;;
67867;SDS011;54672;46.096;14.470;2023-04-03T03:36:57;4.05;;;2.67;;
67867;SDS011;54672;46.096;14.470;2023-04-03T03:39:23;4.72;;;2.38;;
67867;SDS011;54672;46.096;14.470;2023-04-03T03:41:48;3.72;;;2.35;;
67867;SDS011;54672;46.096;14.470;2023-04-03T03:44:14;4.93;;;2.63;;
67867;SDS011;54672;46.096;14.470;2023-04-03T03:46:40;4.07;;;2.40;;
67867;SDS011;54672;46.096;14.470;2023-04-03T03:49:05;3.30;;;1.88;;
67867;SDS011;54672;46.096;14.470;2023-04-03T03:51:31;4.85;;;2.45;;
67867;SDS011;54672;46.096;14.470;2023-04-03T03:53:56;5.30;;;2.30;;
67867;SDS011;54672;46.096;14.470;2023-04-03T03:56:22;2.80;;;2.10;;
67867;SDS011;54672;46.096;14.470;2023-04-03T03:58:47;4.35;;;2.00;;
67867;SDS011;54672;46.096;14.470;2023-04-03T04:01:14;3.42;;;2.20;;
67867;SDS011;54672;46.096;14.470;2023-04-03T04:03:40;4.35;;;2.20;;
67867;SDS011;54672;46.096;14.470;2023-04-03T04:06:06;4.90;;;2.30;;
67867;SDS011;54672;46.096;14.470;2023-04-03T04:08:31;4.60;;;2.40;;
67867;SDS011;54672;46.096;14.470;2023-04-03T04:10:57;4.28;;;2.40;;
67867;SDS011;54672;46.096;14.470;2023-04-03T04:13:22;4.15;;;2.05;;
67867;SDS011;54672;46.096;14.470;2023-04-03T04:15:48;4.35;;;2.65;;
67867;SDS011;54672;46.096;14.470;2023-04-03T04:18:13;4.85;;;2.42;;
67867;SDS011;54672;46.096;14.470;2023-04-03T04:20:39;6.15;;;2.97;;
67867;SDS011;54672;46.096;14.470;2023-04-03T04:23:05;4.88;;;2.50;;
67867;SDS011;54672;46.096;14.470;2023-04-03T04:25:30;7.13;;;2.60;;
67867;SDS011;54672;46.096;14.470;2023-04-03T04:27:56;5.18;;;2.80;;
67867;SDS011;54672;46.096;14.470;2023-04-03T04:30:21;8.55;;;4.75;;
67867;SDS011;54672;46.096;14.470;2023-04-03T04:32:46;4.53;;;2.17;;
67867;SDS011;54672;46.096;14.470;2023-04-03T04:35:12;5.75;;;3.20;;
67867;SDS011;54672;46.096;14.470;2023-04-03T04:37:37;4.65;;;3.20;;
67867;SDS011;54672;46.096;14.470;2023-04-03T04:40:03;5.68;;;3.85;;
67867;SDS011;54672;46.096;14.470;2023-04-03T04:42:29;5.38;;;3.00;;
67867;SDS011;54672;46.096;14.470;2023-04-03T04:44:54;5.57;;;2.95;;
67867;SDS011;54672;46.096;14.470;2023-04-03T04:47:20;4.70;;;2.67;;
67867;SDS011;54672;46.096;14.470;2023-04-03T04:49:45;3.83;;;2.53;;
67867;SDS011;54672;46.096;14.470;2023-04-03T04:52:12;5.30;;;2.92;;
67867;SDS011;54672;46.096;14.470;2023-04-03T04:54:38;4.55;;;2.17;;
67867;SDS011;54672;46.096;14.470;2023-04-03T04:57:03;4.63;;;2.40;;
67867;SDS011;54672;46.096;14.470;2023-04-03T04:59:29;4.65;;;2.55;;
67867;SDS011;54672;46.096;14.470;2023-04-03T05:01:54;5.47;;;2.60;;
67867;SDS011;54672;46.096;14.470;2023-04-03T05:04:19;5.93;;;2.50;;
67867;SDS011;54672;46.096;14.470;2023-04-03T05:06:45;5.68;;;3.67;;
67867;SDS011;54672;46.096;14.470;2023-04-03T05:09:11;4.30;;;2.70;;
67867;SDS011;54672;46.096;14.470;2023-04-03T05:11:37;6.25;;;3.20;;
67867;SDS011;54672;46.096;14.470;2023-04-03T05:14:02;8.27;;;3.72;;
67867;SDS011;54672;46.096;14.470;2023-04-03T05:16:30;6.13;;;3.90;;
67867;SDS011;54672;46.096;14.470;2023-04-03T05:18:55;5.00;;;3.03;;
67867;SDS011;54672;46.096;14.470;2023-04-03T05:21:21;6.47;;;3.42;;
67867;SDS011;54672;46.096;14.470;2023-04-03T05:23:48;6.88;;;4.78;;
67867;SDS011;54672;46.096;14.470;2023-04-03T05:26:13;8.18;;;4.50;;
67867;SDS011;54672;46.096;14.470;2023-04-03T05:28:39;6.55;;;3.28;;
67867;SDS011;54672;46.096;14.470;2023-04-03T05:31:04;5.28;;;3.15;;
67867;SDS011;54672;46.096;14.470;2023-04-03T05:33:30;4.20;;;2.80;;
67867;SDS011;54672;46.096;14.470;2023-04-03T05:35:55;6.25;;;3.97;;
67867;SDS011;54672;46.096;14.470;2023-04-03T05:38:21;6.10;;;3.20;;
67867;SDS011;54672;46.096;14.470;2023-04-03T05:40:46;5.85;;;3.30;;
67867;SDS011;54672;46.096;14.470;2023-04-03T05:43:12;4.88;;;2.92;;
67867;SDS011;54672;46.096;14.470;2023-04-03T05:45:37;3.95;;;2.30;;
67867;SDS011;54672;46.096;14.470;2023-04-03T05:48:03;6.90;;;3.47;;
67867;SDS011;54672;46.096;14.470;2023-04-03T05:50:28;4.35;;;2.63;;
67867;SDS011;54672;46.096;14.470;2023-04-03T05:52:55;5.75;;;3.20;;
67867;SDS011;54672;46.096;14.470;2023-04-03T05:55:23;5.60;;;3.50;;
67867;SDS011;54672;46.096;14.470;2023-04-03T05:57:48;7.80;;;2.85;;
67867;SDS011;54672;46.096;14.470;2023-04-03T06:00:15;4.40;;;2.78;;
67867;SDS011;54672;46.096;14.470;2023-04-03T06:02:41;3.88;;;2.70;;
67867;SDS011;54672;46.096;14.470;2023-04-03T06:05:07;5.28;;;2.90;;
67867;SDS011;54672;46.096;14.470;2023-04-03T06:07:34;8.23;;;4.18;;
67867;SDS011;54672;46.096;14.470;2023-04-03T06:10:00;5.10;;;3.38;;
67867;SDS011;54672;46.096;14.470;2023-04-03T06:12:27;7.50;;;4.13;;
67867;SDS011;54672;46.096;14.470;2023-04-03T06:14:54;7.53;;;4.90;;
67867;SDS011;54672;46.096;14.470;2023-04-03T06:17:20;7.78;;;3.58;;
67867;SDS011;54672;46.096;14.470;2023-04-03T06:19:45;8.57;;;4.28;;
67867;SDS011;54672;46.096;14.470;2023-04-03T06:22:11;3.83;;;2.50;;
67867;SDS011;54672;46.096;14.470;2023-04-03T06:24:37;6.35;;;3.75;;
67867;SDS011;54672;46.096;14.470;2023-04-03T06:27:03;9.55;;;3.13;;
67867;SDS011;54672;46.096;14.470;2023-04-03T06:29:29;9.30;;;4.28;;
67867;SDS011;54672;46.096;14.470;2023-04-03T06:31:55;5.25;;;2.67;;
67867;SDS011;54672;46.096;14.470;2023-04-03T06:34:21;4.68;;;2.40;;
67867;SDS011;54672;46.096;14.470;2023-04-03T06:36:47;12.98;;;6.55;;
67867;SDS011;54672;46.096;14.470;2023-04-03T06:39:15;5.43;;;2.53;;
67867;SDS011;54672;46.096;14.470;2023-04-03T06:41:41;5.82;;;2.40;;
67867;SDS011;54672;46.096;14.470;2023-04-03T06:44:07;3.70;;;2.40;;
67867;SDS011;54672;46.096;14.470;2023-04-03T06:46:36;4.45;;;2.45;;
67867;SDS011;54672;46.096;14.470;2023-04-03T06:49:02;2.72;;;1.65;;
67867;SDS011;54672;46.096;14.470;2023-04-03T06:51:28;5.80;;;2.50;;
67867;SDS011;54672;46.096;14.470;2023-04-03T06:53:56;2.00;;;1.38;;
67867;SDS011;54672;46.096;14.470;2023-04-03T06:56:23;2.40;;;1.00;;
67867;SDS011;54672;46.096;14.470;2023-04-03T06:58:48;3.28;;;1.75;;
67867;SDS011;54672;46.096;14.470;2023-04-03T07:01:16;3.03;;;1.55;;
67867;SDS011;54672;46.096;14.470;2023-04-03T07:03:43;2.25;;;1.30;;
67867;SDS011;54672;46.096;14.470;2023-04-03T07:06:11;2.75;;;1.73;;
67867;SDS011;54672;46.096;14.470;2023-04-03T07:08:37;2.85;;;1.35;;
67867;SDS011;54672;46.096;14.470;2023-04-03T07:11:04;3.47;;;1.80;;
67867;SDS011;54672;46.096;14.470;2023-04-03T07:13:30;3.28;;;1.23;;
67867;SDS011;54672;46.096;14.470;2023-04-03T07:15:55;4.72;;;2.45;;
67867;SDS011;54672;46.096;14.470;2023-04-03T07:18:21;3.88;;;1.50;;
67867;SDS011;54672;46.096;14.470;2023-04-03T07:20:47;1.58;;;1.00;;
67867;SDS011;54672;46.096;14.470;2023-04-03T07:23:12;0.98;;;0.80;;
67867;SDS011;54672;46.096;14.470;2023-04-03T07:25:48;2.45;;;1.40;;
67867;SDS011;54672;46.096;14.470;2023-04-03T07:28:16;2.10;;;1.40;;
67867;SDS011;54672;46.096;14.470;2023-04-03T07:30:52;2.13;;;1.48;;
67867;SDS011;54672;46.096;14.470;2023-04-03T07:33:20;1.30;;;1.00;;
67867;SDS011;54672;46.096;14.470;2023-04-03T07:35:48;2.75;;;1.23;;
67867;SDS011;54672;46.096;14.470;2023-04-03T07:38:13;1.95;;;1.13;;
67867;SDS011;54672;46.096;14.470;2023-04-03T07:40:41;2.97;;;1.13;;
67867;SDS011;54672;46.096;14.470;2023-04-03T07:43:11;1.50;;;1.10;;
67867;SDS011;54672;46.096;14.470;2023-04-03T07:45:37;1.77;;;1.05;;
67867;SDS011;54672;46.096;14.470;2023-04-03T07:48:03;2.80;;;1.48;;
67867;SDS011;54672;46.096;14.470;2023-04-03T07:50:29;3.88;;;1.50;;
67867;SDS011;54672;46.096;14.470;2023-04-03T07:52:56;2.45;;;1.15;;
67867;SDS011;54672;46.096;14.470;2023-04-03T07:55:22;1.10;;;0.80;;
67867;SDS011;54672;46.096;14.470;2023-04-03T07:57:48;2.35;;;1.35;;
67867;SDS011;54672;46.096;14.470;2023-04-03T08:00:14;2.03;;;1.00;;
67867;SDS011;54672;46.096;14.470;2023-04-03T08:02:40;2.75;;;0.95;;
67867;SDS011;54672;46.096;14.470;2023-04-03T08:05:05;2.75;;;1.10;;
67867;SDS011;54672;46.096;14.470;2023-04-03T08:07:31;1.63;;;0.95;;
67867;SDS011;54672;46.096;14.470;2023-04-03T08:09:56;2.40;;;1.10;;
67867;SDS011;54672;46.096;14.470;2023-04-03T08:12:22;1.45;;;0.98;;
67867;SDS011;54672;46.096;14.470;2023-04-03T08:14:47;3.05;;;1.40;;
67867;SDS011;54672;46.096;14.470;2023-04-03T08:17:13;1.58;;;1.17;;
67867;SDS011;54672;46.096;14.470;2023-04-03T08:19:39;1.95;;;1.33;;
67867;SDS011;54672;46.096;14.470;2023-04-03T08:22:05;2.10;;;0.70;;
67867;SDS011;54672;46.096;14.470;2023-04-03T08:24:33;1.38;;;1.00;;
67867;SDS011;54672;46.096;14.470;2023-04-03T08:26:59;1.50;;;1.00;;
67867;SDS011;54672;46.096;14.470;2023-04-03T08:29:25;2.08;;;1.35;;
67867;SDS011;54672;46.096;14.470;2023-04-03T08:31:51;1.40;;;0.80;;
67867;SDS011;54672;46.096;14.470;2023-04-03T08:34:17;1.88;;;1.00;;
67867;SDS011;54672;46.096;14.470;2023-04-03T08:36:43;1.33;;;1.10;;
67867;SDS011;54672;46.096;14.470;2023-04-03T08:39:08;1.63;;;1.08;;
67867;SDS011;54672;46.096;14.470;2023-04-03T08:50:05;1.20;;;1.00;;
67867;SDS011;54672;46.096;14.470;2023-04-03T08:52:36;1.90;;;1.02;;
67867;SDS011;54672;46.096;14.470;2023-04-03T08:55:47;1.50;;;1.00;;
67867;SDS011;54672;46.096;14.470;2023-04-03T08:58:04;1.13;;;0.82;;
67867;SDS011;54672;46.096;14.470;2023-04-03T09:01:15;1.88;;;0.93;;
67867;SDS011;54672;46.096;14.470;2023-04-03T09:03:49;2.30;;;1.00;;
67867;SDS011;54672;46.096;14.470;2023-04-03T09:06:17;1.58;;;1.00;;
67867;SDS011;54672;46.096;14.470;2023-04-03T09:14:08;0.80;;;0.70;;
67867;SDS011;54672;46.096;14.470;2023-04-03T09:16:53;1.08;;;0.80;;
67867;SDS011;54672;46.096;14.470;2023-04-03T09:22:02;2.20;;;1.02;;
67867;SDS011;54672;46.096;14.470;2023-04-03T09:24:36;1.10;;;0.60;;
67867;SDS011;54672;46.096;14.470;2023-04-03T09:27:06;0.50;;;0.50;;
67867;SDS011;54672;46.096;14.470;2023-04-03T09:29:35;1.48;;;1.02;;
67867;SDS011;54672;46.096;14.470;2023-04-03T09:34:57;0.80;;;0.63;;
67867;SDS011;54672;46.096;14.470;2023-04-03T09:37:40;1.02;;;0.80;;
67867;SDS011;54672;46.096;14.470;2023-04-03T09:42:55;1.98;;;0.90;;
67867;SDS011;54672;46.096;14.470;2023-04-03T09:45:24;1.90;;;0.90;;
67867;SDS011;54672;46.096;14.470;2023-04-03T09:48:37;1.48;;;1.00;;
67867;SDS011;54672;46.096;14.470;2023-04-03T09:55:56;1.27;;;0.80;;
67867;SDS011;54672;46.096;14.470;2023-04-03T09:58:33;1.70;;;0.98;;
67867;SDS011;54672;46.096;14.470;2023-04-03T10:01:03;1.27;;;0.90;;
67867;SDS011;54672;46.096;14.470;2023-04-03T10:06:00;1.23;;;0.88;;
67867;SDS011;54672;46.096;14.470;2023-04-03T10:08:31;1.08;;;0.80;;
67867;SDS011;54672;46.096;14.470;2023-04-03T10:13:51;1.10;;;0.85;;
67867;SDS011;54672;46.096;14.470;2023-04-03T10:16:26;1.05;;;0.65;;
67867;SDS011;54672;46.096;14.470;2023-04-03T10:21:46;1.08;;;0.85;;
67867;SDS011;54672;46.096;14.470;2023-04-03T10:24:21;0.95;;;0.73;;
67867;SDS011;54672;46.096;14.470;2023-04-03T10:26:57;0.63;;;0.63;;
67867;SDS011;54672;46.096;14.470;2023-04-03T10:37:29;0.95;;;0.60;;
67867;SDS011;54672;46.096;14.470;2023-04-03T10:40:04;1.70;;;0.90;;
67867;SDS011;54672;46.096;14.470;2023-04-03T10:51:57;1.07;;;0.87;;
67867;SDS011;54672;46.096;14.470;2023-04-03T10:54:38;1.33;;;0.90;;
67867;SDS011;54672;46.096;14.470;2023-04-03T10:57:08;1.60;;;0.90;;
67867;SDS011;54672;46.096;14.470;2023-04-03T10:59:41;2.53;;;1.00;;
67867;SDS011;54672;46.096;14.470;2023-04-03T11:07:12;1.50;;;0.73;;
67867;SDS011;54672;46.096;14.470;2023-04-03T11:09:44;0.80;;;0.63;;
67867;SDS011;54672;46.096;14.470;2023-04-03T11:12:36;0.98;;;0.70;;
67867;SDS011;54672;46.096;14.470;2023-04-03T11:15:11;1.65;;;0.90;;
67867;SDS011;54672;46.096;14.470;2023-04-03T11:17:43;1.05;;;0.70;;
67867;SDS011;54672;46.096;14.470;2023-04-03T11:20:19;2.05;;;0.77;;
67867;SDS011;54672;46.096;14.470;2023-04-03T11:22:53;1.65;;;1.08;;
67867;SDS011;54672;46.096;14.470;2023-04-03T11:28:33;0.55;;;0.55;;
67867;SDS011;54672;46.096;14.470;2023-04-03T11:36:06;1.73;;;0.90;;
67867;SDS011;54672;46.096;14.470;2023-04-03T11:38:36;2.20;;;0.93;;
67867;SDS011;54672;46.096;14.470;2023-04-03T11:41:07;1.50;;;0.93;;
67867;SDS011;54672;46.096;14.470;2023-04-03T11:43:36;1.60;;;0.68;;
67867;SDS011;54672;46.096;14.470;2023-04-03T11:46:06;1.80;;;0.70;;
67867;SDS011;54672;46.096;14.470;2023-04-03T11:51:02;1.00;;;0.80;;
67867;SDS011;54672;46.096;14.470;2023-04-03T11:53:48;1.15;;;0.82;;
67867;SDS011;54672;46.096;14.470;2023-04-03T12:01:54;0.80;;;0.75;;
67867;SDS011;54672;46.096;14.470;2023-04-03T12:04:25;1.25;;;0.80;;
67867;SDS011;54672;46.096;14.470;2023-04-03T12:12:35;1.88;;;1.00;;
67867;SDS011;54672;46.096;14.470;2023-04-03T12:15:17;1.30;;;0.70;;
67867;SDS011;54672;46.096;14.470;2023-04-03T12:17:44;1.50;;;1.00;;
67867;SDS011;54672;46.096;14.470;2023-04-03T12:20:52;1.17;;;0.90;;
67867;SDS011;54672;46.096;14.470;2023-04-03T12:23:23;1.30;;;0.85;;
67867;SDS011;54672;46.096;14.470;2023-04-03T12:25:51;1.00;;;0.68;;
67867;SDS011;54672;46.096;14.470;2023-04-03T12:28:24;1.17;;;0.77;;
67867;SDS011;54672;46.096;14.470;2023-04-03T12:30:50;1.40;;;0.85;;
67867;SDS011;54672;46.096;14.470;2023-04-03T12:36:04;1.30;;;0.80;;
67867;SDS011;54672;46.096;14.470;2023-04-03T12:41:28;1.50;;;1.00;;
67867;SDS011;54672;46.096;14.470;2023-04-03T12:46:38;1.90;;;0.80;;
67867;SDS011;54672;46.096;14.470;2023-04-03T12:51:51;1.10;;;0.70;;
67867;SDS011;54672;46.096;14.470;2023-04-03T12:54:30;1.00;;;0.70;;
67867;SDS011;54672;46.096;14.470;2023-04-03T12:59:42;1.58;;;0.82;;
67867;SDS011;54672;46.096;14.470;2023-04-03T13:02:20;0.98;;;0.70;;
67867;SDS011;54672;46.096;14.470;2023-04-03T13:04:48;0.73;;;0.60;;
67867;SDS011;54672;46.096;14.470;2023-04-03T13:07:19;1.75;;;0.80;;
67867;SDS011;54672;46.096;14.470;2023-04-03T13:09:54;0.95;;;0.60;;
67867;SDS011;54672;46.096;14.470;2023-04-03T13:15:21;1.30;;;0.55;;
67867;SDS011;54672;46.096;14.470;2023-04-03T13:17:49;1.35;;;0.90;;
67867;SDS011;54672;46.096;14.470;2023-04-03T13:20:28;1.90;;;0.90;;
67867;SDS011;54672;46.096;14.470;2023-04-03T13:23:04;1.23;;;0.70;;
67867;SDS011;54672;46.096;14.470;2023-04-03T13:25:34;2.22;;;0.80;;
67867;SDS011;54672;46.096;14.470;2023-04-03T13:28:02;1.63;;;0.80;;
67867;SDS011;54672;46.096;14.470;2023-04-03T13:30:30;0.93;;;0.68;;
67867;SDS011;54672;46.096;14.470;2023-04-03T13:33:02;1.67;;;0.70;;
67867;SDS011;54672;46.096;14.470;2023-04-03T13:35:36;2.42;;;0.80;;
67867;SDS011;54672;46.096;14.470;2023-04-03T13:38:21;1.40;;;0.80;;
67867;SDS011;54672;46.096;14.470;2023-04-03T13:40:56;1.52;;;0.80;;
67867;SDS011;54672;46.096;14.470;2023-04-03T13:43:27;1.85;;;1.05;;
67867;SDS011;54672;46.096;14.470;2023-04-03T13:48:19;1.42;;;0.82;;
67867;SDS011;54672;46.096;14.470;2023-04-03T13:53:22;1.20;;;0.80;;
67867;SDS011;54672;46.096;14.470;2023-04-03T13:55:58;1.00;;;0.70;;
67867;SDS011;54672;46.096;14.470;2023-04-03T13:58:28;0.50;;;0.50;;
67867;SDS011;54672;46.096;14.470;2023-04-03T14:00:58;2.50;;;0.85;;
67867;SDS011;54672;46.096;14.470;2023-04-03T14:05:59;1.30;;;0.98;;
67867;SDS011;54672;46.096;14.470;2023-04-03T14:08:26;1.20;;;0.65;;
67867;SDS011;54672;46.096;14.470;2023-04-03T14:10:52;1.88;;;0.98;;
67867;SDS011;54672;46.096;14.470;2023-04-03T14:13:19;1.02;;;0.80;;
67867;SDS011;54672;46.096;14.470;2023-04-03T14:15:45;1.52;;;0.90;;
67867;SDS011;54672;46.096;14.470;2023-04-03T14:18:14;1.50;;;1.00;;
67867;SDS011;54672;46.096;14.470;2023-04-03T14:20:41;0.93;;;0.65;;
67867;SDS011;54672;46.096;14.470;2023-04-03T14:23:07;1.20;;;0.75;;
67867;SDS011;54672;46.096;14.470;2023-04-03T14:25:33;0.73;;;0.70;;
67867;SDS011;54672;46.096;14.470;2023-04-03T14:28:00;1.30;;;0.80;;
67867;SDS011;54672;46.096;14.470;2023-04-03T14:30:27;4.30;;;1.00;;
67867;SDS011;54672;46.096;14.470;2023-04-03T14:32:56;2.72;;;1.27;;
67867;SDS011;54672;46.096;14.470;2023-04-03T14:35:22;2.42;;;1.23;;
67867;SDS011;54672;46.096;14.470;2023-04-03T14:37:49;2.05;;;0.95;;
67867;SDS011;54672;46.096;14.470;2023-04-03T14:40:18;2.45;;;1.25;;
67867;SDS011;54672;46.096;14.470;2023-04-03T14:42:47;1.95;;;0.80;;
67867;SDS011;54672;46.096;14.470;2023-04-03T14:45:13;3.70;;;1.00;;
67867;SDS011;54672;46.096;14.470;2023-04-03T14:47:47;1.85;;;0.90;;
67867;SDS011;54672;46.096;14.470;2023-04-03T14:50:16;1.05;;;0.70;;
67867;SDS011;54672;46.096;14.470;2023-04-03T14:52:44;1.08;;;0.80;;
67867;SDS011;54672;46.096;14.470;2023-04-03T14:55:11;1.00;;;0.82;;
67867;SDS011;54672;46.096;14.470;2023-04-03T14:57:37;0.88;;;0.80;;
67867;SDS011;54672;46.096;14.470;2023-04-03T15:00:04;1.80;;;0.70;;
67867;SDS011;54672;46.096;14.470;2023-04-03T15:02:33;2.08;;;0.90;;
67867;SDS011;54672;46.096;14.470;2023-04-03T15:05:06;1.92;;;0.93;;
67867;SDS011;54672;46.096;14.470;2023-04-03T15:07:35;3.42;;;1.10;;
67867;SDS011;54672;46.096;14.470;2023-04-03T15:10:23;11.70;;;1.50;;
67867;SDS011;54672;46.096;14.470;2023-04-03T15:12:50;2.97;;;1.50;;
67867;SDS011;54672;46.096;14.470;2023-04-03T15:15:17;1.02;;;0.80;;
67867;SDS011;54672;46.096;14.470;2023-04-03T15:17:55;1.52;;;0.90;;
67867;SDS011;54672;46.096;14.470;2023-04-03T15:20:25;1.38;;;1.00;;
67867;SDS011;54672;46.096;14.470;2023-04-03T15:22:52;2.80;;;1.02;;
67867;SDS011;54672;46.096;14.470;2023-04-03T15:25:21;1.60;;;1.20;;
67867;SDS011;54672;46.096;14.470;2023-04-03T15:27:46;1.95;;;1.05;;
67867;SDS011;54672;46.096;14.470;2023-04-03T15:30:15;1.08;;;0.77;;
67867;SDS011;54672;46.096;14.470;2023-04-03T15:32:43;1.73;;;1.00;;
67867;SDS011;54672;46.096;14.470;2023-04-03T15:35:08;1.67;;;0.95;;
67867;SDS011;54672;46.096;14.470;2023-04-03T15:37:34;1.60;;;0.80;;
67867;SDS011;54672;46.096;14.470;2023-04-03T15:39:59;2.65;;;1.35;;
67867;SDS011;54672;46.096;14.470;2023-04-03T15:42:25;4.55;;;2.70;;
67867;SDS011;54672;46.096;14.470;2023-04-03T15:44:50;2.08;;;0.95;;
67867;SDS011;54672;46.096;14.470;2023-04-03T15:47:16;1.67;;;1.05;;
67867;SDS011;54672;46.096;14.470;2023-04-03T15:49:41;5.18;;;3.40;;
67867;SDS011;54672;46.096;14.470;2023-04-03T15:52:07;1.75;;;1.30;;
67867;SDS011;54672;46.096;14.470;2023-04-03T15:54:33;3.90;;;1.30;;
67867;SDS011;54672;46.096;14.470;2023-04-03T15:56:58;0.80;;;0.80;;
67867;SDS011;54672;46.096;14.470;2023-04-03T15:59:24;2.28;;;0.85;;
67867;SDS011;54672;46.096;14.470;2023-04-03T16:01:49;2.80;;;1.15;;
67867;SDS011;54672;46.096;14.470;2023-04-03T16:04:16;1.92;;;0.93;;
67867;SDS011;54672;46.096;14.470;2023-04-03T16:06:42;1.67;;;1.20;;
67867;SDS011;54672;46.096;14.470;2023-04-03T16:09:08;1.63;;;1.13;;
67867;SDS011;54672;46.096;14.470;2023-04-03T16:11:34;2.35;;;1.75;;
67867;SDS011;54672;46.096;14.470;2023-04-03T16:14:01;2.80;;;1.15;;
67867;SDS011;54672;46.096;14.470;2023-04-03T16:16:26;3.28;;;1.70;;
67867;SDS011;54672;46.096;14.470;2023-04-03T16:18:53;2.90;;;1.48;;
67867;SDS011;54672;46.096;14.470;2023-04-03T16:21:20;1.25;;;1.00;;
67867;SDS011;54672;46.096;14.470;2023-04-03T16:23:46;4.70;;;1.23;;
67867;SDS011;54672;46.096;14.470;2023-04-03T16:26:12;2.20;;;1.00;;
67867;SDS011;54672;46.096;14.470;2023-04-03T16:28:38;0.60;;;0.45;;
67867;SDS011;54672;46.096;14.470;2023-04-03T16:31:03;1.80;;;0.85;;
67867;SDS011;54672;46.096;14.470;2023-04-03T16:33:32;2.67;;;1.10;;
67867;SDS011;54672;46.096;14.470;2023-04-03T16:35:57;1.63;;;1.08;;
67867;SDS011;54672;46.096;14.470;2023-04-03T16:38:23;1.40;;;1.00;;